Asiatic Glory — 9V3924 — position and weather

sailwx.info

Track history (hours):
 
Tides and Currents Weather Stations Pressure Air Temp Water Temp Dewpoint Dewpoint Depression Visibility Wind Speed Wind Dir Waves Ship Positions

Asiatic Glory

Last reported at 2017-Sep-22 01:39 UTC. Time now 2017-Sep-22 20:53 UTC.
Position N 35°51' E 014°45'.

Length 149 m; draft 7.6 m.

Type: Ship (hazmat cat A). MMSI: 565594000.

Date/timePositionNaut miles runAvg speedWind from/ knotsBaromVisibWave heightAir tempDewpointWater temp
2017-Sep-22 01:39N 35°51' E 014°45'0 0.0
2017-Sep-22 01:23N 35°51' E 014°45'0 0.0
2017-Sep-22 00:56N 35°51' E 014°45'0 0.0
2017-Sep-22 00:22N 35°51' E 014°45'0 0.0
2017-Sep-21 23:58N 35°51' E 014°45'0 0.0
2017-Sep-21 23:18N 35°51' E 014°45'0 0.0
2017-Sep-21 22:55N 35°51' E 014°45'0 0.0
2017-Sep-21 21:28N 35°51' E 014°45'0 0.0
2017-Sep-21 21:00N 35°51' E 014°45'0 0.1
2017-Sep-21 20:25N 35°51' E 014°45'43012.5
2017-Sep-20 09:54N 36°49' E 023°34'11113.9
2017-Sep-20 01:56N 38°22' E 024°51'9814.9
2017-Sep-19 19:21N 39°51' E 025°44'715.9
2017-Sep-19 18:55N 39°55' E 025°51'715.9
2017-Sep-19 18:30N 39°59' E 025°58'815.2
2017-Sep-19 18:00N 40°01' E 026°07'3413.7
2017-Sep-19 15:33N 40°23' E 026°40'413.8
2017-Sep-19 15:16N 40°26' E 026°44'413.6
2017-Sep-19 14:58N 40°28' E 026°49'613.4
2017-Sep-19 14:30N 40°30' E 026°57'915.1
2017-Sep-19 13:53N 40°34' E 027°08'98 5.5
2017-Sep-18 19:54N 41°24' E 029°00'0 0.9
2017-Sep-18 19:30N 41°24' E 029°01'6 2.8
2017-Sep-18 17:14N 41°22' E 028°53'96 7.0
2017-Sep-18 03:36N 42°48' E 027°56'139 5.2
2017-Sep-17 00:43N 43°35' E 030°56'514.7
2017-Sep-17 00:22N 43°36' E 031°03'7514.9
2017-Sep-16 19:21N 43°46' E 032°45'715.1
2017-Sep-16 18:53N 43°47' E 032°55'715.0
2017-Sep-16 18:26N 43°48' E 033°04'915.0
2017-Sep-16 17:49N 43°50' E 033°17'514.7
2017-Sep-16 17:30N 43°50' E 033°23'3915.0
2017-Sep-16 14:53N 43°56' E 034°17'2615.1
2017-Sep-16 13:07N 43°60' E 034°54'315.2
2017-Sep-16 12:55N 44°00' E 034°58'615.3
2017-Sep-16 12:31N 44°01' E 035°06'10015.2
2017-Sep-16 05:58N 44°25' E 037°21'715.1
2017-Sep-16 05:30N 44°28' E 037°30'715.0
2017-Sep-16 05:00N 44°32' E 037°39'714.9
2017-Sep-16 04:30N 44°36' E 037°47'5 9.6
2017-Sep-16 04:00N 44°41' E 037°50'3 5.1
2017-Sep-16 03:30N 44°43' E 037°49'0 0.2
2017-Sep-16 03:00N 44°43' E 037°49'0 0.0
2017-Sep-16 02:27N 44°43' E 037°49'0 0.0
2017-Sep-16 02:00N 44°43' E 037°49'0 0.1
2017-Sep-16 01:29N 44°43' E 037°49'0 0.0
2017-Sep-16 00:59N 44°43' E 037°49'0 0.1
2017-Sep-16 00:29N 44°43' E 037°49'0 0.1
2017-Sep-15 23:59N 44°43' E 037°49'0 0.0
2017-Sep-15 23:30N 44°43' E 037°49'0 0.0
2017-Sep-15 22:58N 44°43' E 037°49'0 0.0
2017-Sep-15 22:28N 44°43' E 037°49'0 0.1
2017-Sep-15 21:19N 44°43' E 037°49'0 0.0
2017-Sep-15 21:00N 44°43' E 037°49'0 0.0
2017-Sep-15 20:30N 44°43' E 037°49'0 0.0
2017-Sep-15 20:00N 44°43' E 037°49'0 0.0
2017-Sep-15 19:30N 44°43' E 037°49'0 0.1
2017-Sep-15 19:00N 44°43' E 037°49'0 0.1
2017-Sep-15 18:29N 44°43' E 037°49'0 0.0
2017-Sep-15 17:38N 44°43' E 037°49'0 0.0
2017-Sep-15 17:29N 44°43' E 037°49'0 0.1
2017-Sep-15 16:59N 44°43' E 037°49'0 0.1
2017-Sep-15 16:29N 44°43' E 037°49'0 0.0
2017-Sep-15 15:58N 44°43' E 037°49'0 0.0
2017-Sep-15 15:07N 44°43' E 037°49'0 0.0
2017-Sep-15 14:58N 44°43' E 037°49'0 0.1
2017-Sep-15 14:28N 44°43' E 037°49'0 0.1
2017-Sep-15 14:01N 44°43' E 037°49'0 0.1
2017-Sep-15 13:27N 44°43' E 037°49'0 0.0
2017-Sep-15 13:00N 44°43' E 037°49'0 0.1
2017-Sep-15 12:30N 44°43' E 037°49'0 0.0
2017-Sep-15 12:00N 44°43' E 037°49'0 0.0
2017-Sep-15 11:29N 44°43' E 037°49'0 0.1
2017-Sep-15 10:59N 44°43' E 037°49'0 0.1
2017-Sep-15 10:29N 44°43' E 037°49'0 0.0
2017-Sep-15 09:59N 44°43' E 037°49'0 0.0
2017-Sep-15 09:29N 44°43' E 037°49'0 0.0
2017-Sep-15 08:58N 44°43' E 037°49'0 0.0
2017-Sep-15 08:28N 44°43' E 037°49'0 0.0
2017-Sep-15 07:58N 44°43' E 037°49'0 0.1
2017-Sep-15 07:30N 44°43' E 037°49'1 1.5
2017-Sep-15 07:00N 44°43' E 037°49'3 6.0
2017-Sep-15 06:30N 44°40' E 037°51'4 8.3
2017-Sep-15 06:00N 44°36' E 037°52'713.8
2017-Sep-15 05:31N 44°29' E 037°54'815.0
2017-Sep-15 05:01N 44°22' E 037°57'915.2
2017-Sep-15 04:26N 44°14' E 038°03'715.8
2017-Sep-15 03:59N 44°11' E 038°11'816.0
2017-Sep-15 03:31N 44°07' E 038°21'816.1
2017-Sep-15 03:01N 44°04' E 038°31'816.0
2017-Sep-15 02:30N 43°60' E 038°40'816.2
2017-Sep-15 02:00N 43°54' E 038°49'816.1
2017-Sep-15 01:30N 43°49' E 038°57'  
2017-Sep-12 20:35N 42°15' E 039°44'316.1
2017-Sep-12 20:23N 42°15' E 039°40'5915.8
2017-Sep-12 16:40N 42°15' E 038°20'316.9
2017-Sep-12 16:30N 42°15' E 038°17'1016.2
2017-Sep-12 15:55N 42°15' E 038°04'3516.0
2017-Sep-12 13:45N 42°15' E 037°17'415.7
2017-Sep-12 13:28N 42°15' E 037°11'715.9
2017-Sep-12 13:00N 42°15' E 037°01'816.0
2017-Sep-12 12:30N 42°15' E 036°51'816.0
2017-Sep-12 12:00N 42°15' E 036°40'815.4
2017-Sep-12 11:30N 42°15' E 036°29'611.5
2017-Sep-12 11:00N 42°15' E 036°21'816.0
2017-Sep-12 10:30N 42°15' E 036°11'816.2
2017-Sep-12 10:00N 42°15' E 035°60'816.5
2017-Sep-12 09:30N 42°15' E 035°49'816.5
2017-Sep-12 09:00N 42°15' E 035°37'816.3
2017-Sep-12 08:30N 42°15' E 035°26'816.4
2017-Sep-12 08:00N 42°16' E 035°15'815.9
2017-Sep-12 07:30N 42°15' E 035°05'1815.4
2017-Sep-12 06:20N 42°15' E 034°40'412.8
2017-Sep-12 05:59N 42°15' E 034°34'612.7
2017-Sep-12 05:30N 42°15' E 034°26'713.5
2017-Sep-12 05:00N 42°15' E 034°17'713.4
2017-Sep-12 04:30N 42°15' E 034°08'813.5
2017-Sep-12 03:53N 42°15' E 033°56'513.6
2017-Sep-12 03:30N 42°15' E 033°49'913.6
2017-Sep-12 02:49N 42°15' E 033°37'413.5
2017-Sep-12 02:29N 42°15' E 033°31'713.5
2017-Sep-12 02:00N 42°13' E 033°22'  
Track history (hours):
 
Tides and Currents Weather Stations Pressure Air Temp Water Temp Dewpoint Dewpoint Depression Visibility Wind Speed Wind Dir Waves Ship Positions

Asiatic Glory

Last reported at 2017-Sep-22 01:39 UTC. Time now 2017-Sep-22 20:53 UTC.
Position N 35°51' E 014°45'.

Length 149 m; draft 7.6 m.

Type: Ship (hazmat cat A). MMSI: 565594000.

Date/timePositionNaut miles runAvg speedWind from/ knotsBaromVisibWave heightAir tempDewpointWater temp
2017-Sep-22 01:39N 35°51' E 014°45'0 0.0
2017-Sep-22 01:23N 35°51' E 014°45'0 0.0
2017-Sep-22 00:56N 35°51' E 014°45'0 0.0
2017-Sep-22 00:22N 35°51' E 014°45'0 0.0
2017-Sep-21 23:58N 35°51' E 014°45'0 0.0
2017-Sep-21 23:18N 35°51' E 014°45'0 0.0
2017-Sep-21 22:55N 35°51' E 014°45'0 0.0
2017-Sep-21 21:28N 35°51' E 014°45'0 0.0
2017-Sep-21 21:00N 35°51' E 014°45'0 0.1
2017-Sep-21 20:25N 35°51' E 014°45'43012.5
2017-Sep-20 09:54N 36°49' E 023°34'11113.9
2017-Sep-20 01:56N 38°22' E 024°51'9814.9
2017-Sep-19 19:21N 39°51' E 025°44'715.9
2017-Sep-19 18:55N 39°55' E 025°51'715.9
2017-Sep-19 18:30N 39°59' E 025°58'815.2
2017-Sep-19 18:00N 40°01' E 026°07'3413.7
2017-Sep-19 15:33N 40°23' E 026°40'413.8
2017-Sep-19 15:16N 40°26' E 026°44'413.6
2017-Sep-19 14:58N 40°28' E 026°49'613.4
2017-Sep-19 14:30N 40°30' E 026°57'915.1
2017-Sep-19 13:53N 40°34' E 027°08'98 5.5
2017-Sep-18 19:54N 41°24' E 029°00'0 0.9
2017-Sep-18 19:30N 41°24' E 029°01'6 2.8
2017-Sep-18 17:14N 41°22' E 028°53'96 7.0
2017-Sep-18 03:36N 42°48' E 027°56'139 5.2
2017-Sep-17 00:43N 43°35' E 030°56'514.7
2017-Sep-17 00:22N 43°36' E 031°03'7514.9
2017-Sep-16 19:21N 43°46' E 032°45'715.1
2017-Sep-16 18:53N 43°47' E 032°55'715.0
2017-Sep-16 18:26N 43°48' E 033°04'915.0
2017-Sep-16 17:49N 43°50' E 033°17'514.7
2017-Sep-16 17:30N 43°50' E 033°23'3915.0
2017-Sep-16 14:53N 43°56' E 034°17'2615.1
2017-Sep-16 13:07N 43°60' E 034°54'315.2
2017-Sep-16 12:55N 44°00' E 034°58'615.3
2017-Sep-16 12:31N 44°01' E 035°06'10015.2
2017-Sep-16 05:58N 44°25' E 037°21'715.1
2017-Sep-16 05:30N 44°28' E 037°30'715.0
2017-Sep-16 05:00N 44°32' E 037°39'714.9
2017-Sep-16 04:30N 44°36' E 037°47'5 9.6
2017-Sep-16 04:00N 44°41' E 037°50'3 5.1
2017-Sep-16 03:30N 44°43' E 037°49'0 0.2
2017-Sep-16 03:00N 44°43' E 037°49'0 0.0
2017-Sep-16 02:27N 44°43' E 037°49'0 0.0
2017-Sep-16 02:00N 44°43' E 037°49'0 0.1
2017-Sep-16 01:29N 44°43' E 037°49'0 0.0
2017-Sep-16 00:59N 44°43' E 037°49'0 0.1
2017-Sep-16 00:29N 44°43' E 037°49'0 0.1
2017-Sep-15 23:59N 44°43' E 037°49'0 0.0
2017-Sep-15 23:30N 44°43' E 037°49'0 0.0
2017-Sep-15 22:58N 44°43' E 037°49'0 0.0
2017-Sep-15 22:28N 44°43' E 037°49'0 0.1
2017-Sep-15 21:19N 44°43' E 037°49'0 0.0
2017-Sep-15 21:00N 44°43' E 037°49'0 0.0
2017-Sep-15 20:30N 44°43' E 037°49'0 0.0
2017-Sep-15 20:00N 44°43' E 037°49'0 0.0
2017-Sep-15 19:30N 44°43' E 037°49'0 0.1
2017-Sep-15 19:00N 44°43' E 037°49'0 0.1
2017-Sep-15 18:29N 44°43' E 037°49'0 0.0
2017-Sep-15 17:38N 44°43' E 037°49'0 0.0
2017-Sep-15 17:29N 44°43' E 037°49'0 0.1
2017-Sep-15 16:59N 44°43' E 037°49'0 0.1
2017-Sep-15 16:29N 44°43' E 037°49'0 0.0
2017-Sep-15 15:58N 44°43' E 037°49'0 0.0
2017-Sep-15 15:07N 44°43' E 037°49'0 0.0
2017-Sep-15 14:58N 44°43' E 037°49'0 0.1
2017-Sep-15 14:28N 44°43' E 037°49'0 0.1
2017-Sep-15 14:01N 44°43' E 037°49'0 0.1
2017-Sep-15 13:27N 44°43' E 037°49'0 0.0
2017-Sep-15 13:00N 44°43' E 037°49'0 0.1
2017-Sep-15 12:30N 44°43' E 037°49'0 0.0
2017-Sep-15 12:00N 44°43' E 037°49'0 0.0
2017-Sep-15 11:29N 44°43' E 037°49'0 0.1
2017-Sep-15 10:59N 44°43' E 037°49'0 0.1
2017-Sep-15 10:29N 44°43' E 037°49'0 0.0
2017-Sep-15 09:59N 44°43' E 037°49'0 0.0
2017-Sep-15 09:29N 44°43' E 037°49'0 0.0
2017-Sep-15 08:58N 44°43' E 037°49'0 0.0
2017-Sep-15 08:28N 44°43' E 037°49'0 0.0
2017-Sep-15 07:58N 44°43' E 037°49'0 0.1
2017-Sep-15 07:30N 44°43' E 037°49'1 1.5
2017-Sep-15 07:00N 44°43' E 037°49'3 6.0
2017-Sep-15 06:30N 44°40' E 037°51'4 8.3
2017-Sep-15 06:00N 44°36' E 037°52'713.8
2017-Sep-15 05:31N 44°29' E 037°54'815.0
2017-Sep-15 05:01N 44°22' E 037°57'915.2
2017-Sep-15 04:26N 44°14' E 038°03'715.8
2017-Sep-15 03:59N 44°11' E 038°11'816.0
2017-Sep-15 03:31N 44°07' E 038°21'816.1
2017-Sep-15 03:01N 44°04' E 038°31'816.0
2017-Sep-15 02:30N 43°60' E 038°40'816.2
2017-Sep-15 02:00N 43°54' E 038°49'816.1
2017-Sep-15 01:30N 43°49' E 038°57'  
2017-Sep-12 20:35N 42°15' E 039°44'316.1
2017-Sep-12 20:23N 42°15' E 039°40'5915.8
2017-Sep-12 16:40N 42°15' E 038°20'316.9
2017-Sep-12 16:30N 42°15' E 038°17'1016.2
2017-Sep-12 15:55N 42°15' E 038°04'3516.0
2017-Sep-12 13:45N 42°15' E 037°17'415.7
2017-Sep-12 13:28N 42°15' E 037°11'715.9
2017-Sep-12 13:00N 42°15' E 037°01'816.0
2017-Sep-12 12:30N 42°15' E 036°51'816.0
2017-Sep-12 12:00N 42°15' E 036°40'815.4
2017-Sep-12 11:30N 42°15' E 036°29'611.5
2017-Sep-12 11:00N 42°15' E 036°21'816.0
2017-Sep-12 10:30N 42°15' E 036°11'816.2
2017-Sep-12 10:00N 42°15' E 035°60'816.5
2017-Sep-12 09:30N 42°15' E 035°49'816.5
2017-Sep-12 09:00N 42°15' E 035°37'816.3
2017-Sep-12 08:30N 42°15' E 035°26'816.4
2017-Sep-12 08:00N 42°16' E 035°15'815.9
2017-Sep-12 07:30N 42°15' E 035°05'1815.4
2017-Sep-12 06:20N 42°15' E 034°40'412.8
2017-Sep-12 05:59N 42°15' E 034°34'612.7
2017-Sep-12 05:30N 42°15' E 034°26'713.5
2017-Sep-12 05:00N 42°15' E 034°17'713.4
2017-Sep-12 04:30N 42°15' E 034°08'813.5
2017-Sep-12 03:53N 42°15' E 033°56'513.6
2017-Sep-12 03:30N 42°15' E 033°49'913.6
2017-Sep-12 02:49N 42°15' E 033°37'413.5
2017-Sep-12 02:29N 42°15' E 033°31'713.5
2017-Sep-12 02:00N 42°13' E 033°22'  

Dump ship's entire track history